Felix-Klein-Gymnasium, Gttingen, 150m NN
Wetterdaten: aktuell Mittwoch, 25.05.2022 22:15
Datum Zeit Temp. A. Feuchte A. Luftdruck Regen Wind Richtung Richtung Sonnenschein Taupunkt Windchill Windben
25.05.2022 22:15 16,3 C 59 % 1013,9 hPa 0,0 mm 0,0 km/h (0 Bft) N-NO 26 0 min 8,3 C 16,3 C 0,0 km/h (0 Bft)
25.05.2022 22:00 16,7 C 54 % 1013,8 hPa 0,0 mm 0,0 km/h (0 Bft) N-NO 26 0 min 7,3 C 16,7 C 0,0 km/h (0 Bft)
25.05.2022 21:45 16,9 C 53 % 1013,7 hPa 0,0 mm 0,0 km/h (0 Bft) N-NO 26 0 min 7,3 C 16,9 C 0,0 km/h (0 Bft)
25.05.2022 21:30 17,1 C 51 % 1013,5 hPa 0,0 mm 0,0 km/h (0 Bft) N-NO 26 0 min 6,9 C 17,1 C 0,0 km/h (0 Bft)
25.05.2022 21:15 17,3 C 51 % 1013,4 hPa 0,0 mm 0,0 km/h (0 Bft) N-NO 26 0 min 7,1 C 17,3 C 0,0 km/h (0 Bft)
25.05.2022 21:00 17,5 C 49 % 1013,4 hPa 0,0 mm 0,1 km/h (0 Bft) N-NO 26 0 min 6,7 C 17,5 C 4,8 km/h (1 Bft)
25.05.2022 20:45 17,7 C 48 % 1013,2 hPa 0,0 mm 0,1 km/h (0 Bft) N-NO 26 0 min 6,6 C 17,7 C 4,8 km/h (1 Bft)
25.05.2022 20:30 17,9 C 48 % 1013,2 hPa 0,0 mm 0,0 km/h (0 Bft) N-NO 26 0 min 6,7 C 17,9 C 4,8 km/h (1 Bft)
25.05.2022 20:15 18,2 C 47 % 1013,2 hPa 0,0 mm 0,0 km/h (0 Bft) N-NO 26 0 min 6,7 C 18,2 C 3,2 km/h (1 Bft)
25.05.2022 20:00 18,4 C 46 % 1013,2 hPa 0,0 mm 0,3 km/h (0 Bft) N-NO 26 0 min 6,6 C 18,4 C 8,0 km/h (2 Bft)
25.05.2022 19:45 18,5 C 44 % 1013,1 hPa 0,0 mm 1,4 km/h (1 Bft) N-NO 26 0 min 6,0 C 18,5 C 11,3 km/h (2 Bft)
25.05.2022 19:30 18,7 C 43 % 1012,9 hPa 0,0 mm 1,8 km/h (1 Bft) O-NO 59 0 min 5,9 C 18,7 C 12,9 km/h (3 Bft)
25.05.2022 19:15 18,9 C 41 % 1012,8 hPa 0,0 mm 2,7 km/h (1 Bft) O 84 0 min 5,4 C 18,9 C 17,7 km/h (3 Bft)
25.05.2022 19:00 18,8 C 41 % 1012,8 hPa 0,0 mm 4,3 km/h (1 Bft) O-NO 74 0 min 5,3 C 18,8 C 17,7 km/h (3 Bft)
25.05.2022 18:45 19,3 C 40 % 1012,7 hPa 0,0 mm 4,7 km/h (1 Bft) O 82 0 min 5,4 C 19,3 C 17,7 km/h (3 Bft)
25.05.2022 18:30 19,3 C 41 % 1012,7 hPa 0,0 mm 5,2 km/h (1 Bft) NO 48 15 min 5,7 C 19,3 C 20,9 km/h (4 Bft)
25.05.2022 18:15 19,3 C 40 % 1012,7 hPa 0,0 mm 3,3 km/h (1 Bft) O-NO 78 0 min 5,4 C 19,3 C 17,7 km/h (3 Bft)
25.05.2022 18:00 19,4 C 40 % 1012,7 hPa 0,0 mm 7,5 km/h (2 Bft) NO 44 15 min 5,5 C 19,4 C 24,1 km/h (4 Bft)
25.05.2022 17:45 19,8 C 40 % 1012,6 hPa 0,0 mm 4,2 km/h (1 Bft) N 10 0 min 5,8 C 19,8 C 24,1 km/h (4 Bft)
25.05.2022 17:30 20,1 C 40 % 1012,5 hPa 0,0 mm 4,5 km/h (1 Bft) N 9 0 min 6,1 C 20,1 C 24,1 km/h (4 Bft)
25.05.2022 17:15 19,5 C 42 % 1012,4 hPa 0,0 mm 4,8 km/h (1 Bft) NO 49 15 min 6,2 C 19,5 C 22,5 km/h (4 Bft)
25.05.2022 17:00 19,4 C 41 % 1012,4 hPa 0,0 mm 5,9 km/h (2 Bft) O 98 0 min 5,8 C 19,4 C 20,9 km/h (4 Bft)
25.05.2022 16:45 19,7 C 40 % 1012,4 hPa 0,0 mm 4,5 km/h (1 Bft) O 97 0 min 5,7 C 19,7 C 17,7 km/h (3 Bft)
25.05.2022 16:30 19,9 C 40 % 1012,5 hPa 0,0 mm 7,0 km/h (2 Bft) O-NO 76 15 min 5,9 C 19,9 C 22,5 km/h (4 Bft)
25.05.2022 16:15 19,7 C 41 % 1012,4 hPa 0,0 mm 5,8 km/h (2 Bft) N 360 15 min 6,1 C 19,7 C 22,5 km/h (4 Bft)
25.05.2022 16:00 19,8 C 39 % 1012,6 hPa 0,0 mm 8,5 km/h (2 Bft) N-NO 31 15 min 5,4 C 19,8 C 25,7 km/h (4 Bft)
25.05.2022 15:45 19,9 C 41 % 1012,5 hPa 0,0 mm 6,0 km/h (2 Bft) N 9 15 min 6,3 C 19,9 C 20,9 km/h (4 Bft)
25.05.2022 15:30 19,5 C 40 % 1012,5 hPa 0,0 mm 7,0 km/h (2 Bft) O-NO 65 0 min 5,5 C 19,5 C 22,5 km/h (4 Bft)
25.05.2022 15:15 19,3 C 43 % 1012,4 hPa 0,0 mm 4,5 km/h (1 Bft) O-NO 63 0 min 6,4 C 19,3 C 24,1 km/h (4 Bft)
25.05.2022 15:00 19,7 C 43 % 1012,4 hPa 0,0 mm 2,8 km/h (1 Bft) NO 55 15 min 6,8 C 19,7 C 12,9 km/h (3 Bft)
25.05.2022 14:45 19,6 C 43 % 1012,5 hPa 0,0 mm 8,8 km/h (2 Bft) O 100 15 min 6,7 C 19,6 C 30,6 km/h (5 Bft)
25.05.2022 14:30 19,6 C 42 % 1012,6 hPa 0,0 mm 9,9 km/h (2 Bft) N-NO 26 15 min 6,3 C 19,6 C 25,7 km/h (4 Bft)
25.05.2022 14:15 19,0 C 45 % 1012,6 hPa 0,0 mm 5,7 km/h (1 Bft) N 5 0 min 6,8 C 19,0 C 27,4 km/h (4 Bft)
25.05.2022 14:00 18,9 C 47 % 1012,5 hPa 0,0 mm 10,7 km/h (2 Bft) N 355 15 min 7,3 C 18,9 C 25,7 km/h (4 Bft)
25.05.2022 13:45 18,2 C 57 % 1012,5 hPa 0,0 mm 3,9 km/h (1 Bft) N-NO 26 15 min 9,5 C 18,2 C 17,7 km/h (3 Bft)
25.05.2022 13:30 17,4 C 60 % 1012,5 hPa 0,0 mm 4,7 km/h (1 Bft) N-NO 17 0 min 9,6 C 17,4 C 17,7 km/h (3 Bft)
25.05.2022 13:15 17,6 C 59 % 1012,6 hPa 0,0 mm 3,6 km/h (1 Bft) NO 43 0 min 9,5 C 17,6 C 17,7 km/h (3 Bft)
25.05.2022 13:00 17,2 C 64 % 1012,7 hPa 0,0 mm 2,2 km/h (1 Bft) N-NO 19 15 min 10,3 C 17,2 C 12,9 km/h (3 Bft)
25.05.2022 12:45 15,4 C 71 % 1012,8 hPa 0,0 mm 0,4 km/h (0 Bft) O 90 0 min 10,2 C 15,4 C 8,0 km/h (2 Bft)
25.05.2022 12:30 15,7 C 68 % 1012,8 hPa 0,3 mm 2,2 km/h (1 Bft) O 88 0 min 9,8 C 15,7 C 14,5 km/h (3 Bft)
25.05.2022 12:15 16,7 C 62 % 1012,7 hPa 0,0 mm 0,4 km/h (0 Bft) N-NW 348 0 min 9,4 C 16,7 C 9,7 km/h (2 Bft)
25.05.2022 12:00 17,1 C 58 % 1012,7 hPa 0,0 mm 1,4 km/h (1 Bft) N-NW 333 0 min 8,8 C 17,1 C 11,3 km/h (2 Bft)
25.05.2022 11:45 17,3 C 58 % 1012,8 hPa 0,0 mm 1,6 km/h (1 Bft) N-NO 26 15 min 9,0 C 17,3 C 12,9 km/h (3 Bft)
25.05.2022 11:30 15,8 C 62 % 1012,9 hPa 0,0 mm 1,1 km/h (1 Bft) SO 138 0 min 8,5 C 15,8 C 8,0 km/h (2 Bft)
25.05.2022 11:15 16,1 C 62 % 1012,9 hPa 0,0 mm 1,4 km/h (1 Bft) SO 138 0 min 8,8 C 16,1 C 8,0 km/h (2 Bft)
25.05.2022 11:00 15,8 C 63 % 1012,9 hPa 0,0 mm 2,6 km/h (1 Bft) O 88 15 min 8,8 C 15,8 C 12,9 km/h (3 Bft)
25.05.2022 10:45 16,0 C 63 % 1012,9 hPa 0,0 mm 3,2 km/h (1 Bft) N 10 0 min 9,0 C 16,0 C 12,9 km/h (3 Bft)
25.05.2022 10:30 15,6 C 66 % 1012,9 hPa 0,0 mm 2,0 km/h (1 Bft) N-NW 329 0 min 9,3 C 15,6 C 12,9 km/h (3 Bft)
25.05.2022 10:15 15,4 C 66 % 1013,1 hPa 0,0 mm 3,6 km/h (1 Bft) NO 51 0 min 9,1 C 15,4 C 14,5 km/h (3 Bft)
25.05.2022 10:00 15,3 C 66 % 1012,9 hPa 0,0 mm 3,9 km/h (1 Bft) O 90 15 min 9,0 C 15,3 C 14,5 km/h (3 Bft)
25.05.2022 09:45 15,2 C 66 % 1012,9 hPa 0,0 mm 5,5 km/h (1 Bft) O 82 15 min 8,9 C 15,2 C 14,5 km/h (3 Bft)
25.05.2022 09:30 15,6 C 67 % 1012,8 hPa 0,0 mm 2,4 km/h (1 Bft) O-NO 71 15 min 9,5 C 15,6 C 12,9 km/h (3 Bft)
25.05.2022 09:15 15,4 C 67 % 1012,8 hPa 0,0 mm 0,1 km/h (0 Bft) N 360 15 min 9,3 C 15,4 C 4,8 km/h (1 Bft)
25.05.2022 09:00 15,7 C 72 % 1012,7 hPa 0,0 mm 0,2 km/h (0 Bft) W-NW 287 15 min 10,7 C 15,7 C 6,4 km/h (2 Bft)
25.05.2022 08:45 14,7 C 76 % 1012,6 hPa 0,0 mm 0,4 km/h (0 Bft) W-NW 286 15 min 10,5 C 14,7 C 9,7 km/h (2 Bft)
25.05.2022 08:30 13,8 C 78 % 1012,6 hPa 0,0 mm 2,4 km/h (1 Bft) W 260 15 min 10,0 C 13,8 C 11,3 km/h (2 Bft)
25.05.2022 08:15 13,3 C 79 % 1012,4 hPa 0,0 mm 2,8 km/h (1 Bft) W-NW 302 15 min 9,7 C 13,3 C 9,7 km/h (2 Bft)
25.05.2022 08:00 12,8 C 81 % 1012,3 hPa 0,0 mm 2,0 km/h (1 Bft) W 270 15 min 9,6 C 12,8 C 8,0 km/h (2 Bft)
25.05.2022 07:45 12,1 C 84 % 1012,3 hPa 0,0 mm 1,7 km/h (1 Bft) N 360 15 min 9,5 C 12,1 C 8,0 km/h (2 Bft)
25.05.2022 07:30 11,6 C 85 % 1012,1 hPa 0,0 mm 2,2 km/h (1 Bft) N 5 15 min 9,2 C 11,6 C 8,0 km/h (2 Bft)
25.05.2022 07:15 11,0 C 87 % 1012,0 hPa 0,0 mm 0,3 km/h (0 Bft) N-NO 13 0 min 8,9 C 11,0 C 8,0 km/h (2 Bft)
25.05.2022 07:00 10,3 C 87 % 1011,9 hPa 0,0 mm 0,0 km/h (0 Bft) N-NO 13 0 min 8,2 C 10,3 C 0,0 km/h (0 Bft)
25.05.2022 06:45 10,0 C 88 % 1011,8 hPa 0,0 mm 0,0 km/h (0 Bft) N-NO 16 15 min 8,1 C 10,0 C 3,2 km/h (1 Bft)
25.05.2022 06:30 9,8 C 89 % 1011,8 hPa 0,0 mm 0,0 km/h (0 Bft) N-NO 16 0 min 8,1 C 9,8 C 0,0 km/h (0 Bft)
25.05.2022 06:15 9,8 C 87 % 1011,7 hPa 0,0 mm 0,0 km/h (0 Bft) N-NO 16 0 min 7,7 C 9,8 C 0,0 km/h (0 Bft)
25.05.2022 06:00 9,9 C 87 % 1011,6 hPa 0,0 mm 0,0 km/h (0 Bft) N-NO 16 0 min 7,8 C 9,9 C 0,0 km/h (0 Bft)
25.05.2022 05:45 10,1 C 87 % 1011,5 hPa 0,0 mm 0,0 km/h (0 Bft) N-NO 16 0 min 8,0 C 10,1 C 0,0 km/h (0 Bft)
25.05.2022 05:30 10,1 C 87 % 1011,5 hPa 0,0 mm 0,0 km/h (0 Bft) N-NO 16 0 min 8,0 C 10,1 C 0,0 km/h (0 Bft)
25.05.2022 05:15 10,1 C 87 % 1011,3 hPa 0,0 mm 0,0 km/h (0 Bft) N-NO 16 0 min 8,0 C 10,1 C 0,0 km/h (0 Bft)
25.05.2022 05:00 10,0 C 88 % 1011,3 hPa 0,0 mm 0,0 km/h (0 Bft) N-NO 16 0 min 8,1 C 10,0 C 0,0 km/h (0 Bft)
25.05.2022 04:45 9,9 C 88 % 1011,2 hPa 0,0 mm 0,0 km/h (0 Bft) N-NO 16 0 min 8,0 C 9,9 C 0,0 km/h (0 Bft)
25.05.2022 04:30 9,8 C 88 % 1011,0 hPa 0,0 mm 0,0 km/h (0 Bft) N-NO 16 0 min 7,9 C 9,8 C 0,0 km/h (0 Bft)
25.05.2022 04:15 9,8 C 87 % 1010,9 hPa 0,0 mm 0,0 km/h (0 Bft) N-NO 16 0 min 7,7 C 9,8 C 0,0 km/h (0 Bft)
25.05.2022 04:00 10,0 C 86 % 1010,8 hPa 0,0 mm 0,0 km/h (0 Bft) N-NO 16 0 min 7,8 C 10,0 C 3,2 km/h (1 Bft)
25.05.2022 03:45 10,2 C 86 % 1010,8 hPa 0,0 mm 0,0 km/h (0 Bft) N-NO 16 0 min 8,0 C 10,2 C 3,2 km/h (1 Bft)
25.05.2022 03:30 10,2 C 86 % 1010,6 hPa 0,0 mm 0,0 km/h (0 Bft) N-NO 16 0 min 8,0 C 10,2 C 0,0 km/h (0 Bft)
25.05.2022 03:15 10,2 C 86 % 1010,6 hPa 0,0 mm 0,0 km/h (0 Bft) N-NO 19 0 min 8,0 C 10,2 C 0,0 km/h (0 Bft)
25.05.2022 03:00 10,1 C 86 % 1010,5 hPa 0,0 mm 0,0 km/h (0 Bft) N-NO 19 0 min 7,9 C 10,1 C 0,0 km/h (0 Bft)
25.05.2022 02:45 10,1 C 87 % 1010,5 hPa 0,0 mm 0,2 km/h (0 Bft) N-NO 19 0 min 8,0 C 10,1 C 6,4 km/h (2 Bft)
25.05.2022 02:30 9,8 C 87 % 1010,5 hPa 0,0 mm 0,2 km/h (0 Bft) N-NO 20 0 min 7,7 C 9,8 C 6,4 km/h (2 Bft)
25.05.2022 02:15 10,0 C 86 % 1010,4 hPa 0,0 mm 0,0 km/h (0 Bft) N-NO 20 0 min 7,8 C 10,0 C 0,0 km/h (0 Bft)
25.05.2022 02:00 10,2 C 86 % 1010,4 hPa 0,0 mm 0,0 km/h (0 Bft) N-NO 20 0 min 8,0 C 10,2 C 1,6 km/h (1 Bft)
25.05.2022 01:45 10,1 C 87 % 1010,2 hPa 0,0 mm 0,0 km/h (0 Bft) N-NO 20 0 min 8,0 C 10,1 C 0,0 km/h (0 Bft)
25.05.2022 01:30 10,1 C 88 % 1010,1 hPa 0,0 mm 0,0 km/h (0 Bft) N-NO 20 0 min 8,2 C 10,1 C 0,0 km/h (0 Bft)
25.05.2022 01:15 9,9 C 89 % 1010,0 hPa 0,0 mm 0,0 km/h (0 Bft) N-NO 20 0 min 8,2 C 9,9 C 0,0 km/h (0 Bft)
25.05.2022 01:00 9,9 C 89 % 1010,0 hPa 0,0 mm 0,0 km/h (0 Bft) N-NO 20 0 min 8,2 C 9,9 C 0,0 km/h (0 Bft)
25.05.2022 00:45 9,8 C 89 % 1009,8 hPa 0,0 mm 0,0 km/h (0 Bft) N-NO 20 0 min 8,1 C 9,8 C 1,6 km/h (1 Bft)
25.05.2022 00:30 9,9 C 89 % 1010,0 hPa 0,0 mm 0,0 km/h (0 Bft) N-NO 20 0 min 8,2 C 9,9 C 4,8 km/h (1 Bft)
25.05.2022 00:15 10,0 C 89 % 1009,7 hPa 0,0 mm 0,0 km/h (0 Bft) N-NO 20 0 min 8,3 C 10,0 C 0,0 km/h (0 Bft)
25.05.2022 00:00 10,1 C 88 % 1009,6 hPa 0,0 mm 0,9 km/h (0 Bft) N-NO 20 0 min 8,2 C 10,1 C 6,4 km/h (2 Bft)
24.05.2022 23:45 10,4 C 87 % 1009,8 hPa 0,0 mm 0,0 km/h (0 Bft) SO 135 0 min 8,3 C 10,4 C 1,6 km/h (1 Bft)
24.05.2022 23:30 10,8 C 86 % 1009,6 hPa 0,0 mm 0,0 km/h (0 Bft) N 0 0 min 8,6 C 10,8 C 0,0 km/h (0 Bft)
24.05.2022 23:15 11,0 C 85 % 1009,5 hPa 0,0 mm 0,0 km/h (0 Bft) SO 135 0 min 8,6 C 11,0 C 3,2 km/h (1 Bft)
24.05.2022 23:00 11,5 C 83 % 1009,4 hPa 0,0 mm 0,0 km/h (0 Bft) SO 138 0 min 8,7 C 11,5 C 0,0 km/h (0 Bft)
_ Min-Zeit 00:45 16:00 23:00 - 23:00 - - - 19:00 00:45 23:00
Minimum _ 9,8 C 39 % 1009,4 hPa - 0,0 km/h (0 Bft) - - - 5,3 C 9,8 C 0,0 km/h (0 Bft)
_ Max-Zeit 17:30 00:15 22:15 12:30 14:00 - - 06:45 09:00 17:30 14:45
Maximum _ 20,1 C 89 % 1013,9 hPa 0,3 mm 10,7 km/h
N (2 Bft)
- - 15 min 10,7 C 20,1 C 30,6 km/h
O (5 Bft)
Durchschnitt _ 14,5 C 67 % 1011,8 hPa #0,3 mm 1,9 km/h (1 Bft) O - #6:45 h 7,9 C 14,5 C 8,8 km/h (2 Bft)